Dalheim, Luxembourg
Current Conditions -  °F | °C
As of 12:50 PM on Thursday 23 Oct 2014 (Local Time) from ELLX Reporting Station
Broken Clouds Broken Clouds  
Wind Chill: 50°   Ceiling: 2700
Heat Index: 50°   Visibility: 5mi
Dew Point: 45°   Wind: 7mph
Humidity: 82%   Direction: 230°SW
Pressure: 30.27"   Gusts: NA
Location:  49.54°N, 6.26°E
Report Text: ELLX 231050Z 23006KT 210V270 8000 FEW010 BKN027 10/07 Q1025 NOSIG
Loading
Personal Weather Stations






























Interactive Weather Map
Tropical Storm Tracking
New forecast layout! Learn more

10-Day Weather Forecast

Advertisements
Track Severe Weather on mobile